sensor_id;sensor_type;location;lat;lon;timestamp;pressure;altitude;pressure_sealevel;temperature;humidity
48624;BME280;34422;45.802;16.114;2023-04-23T00:01:06;99933.19;;;9.58;100.00
48624;BME280;34422;45.802;16.114;2023-04-23T00:03:34;99930.31;;;9.53;100.00
48624;BME280;34422;45.802;16.114;2023-04-23T00:06:04;99931.97;;;9.54;100.00
48624;BME280;34422;45.802;16.114;2023-04-23T00:08:31;99929.91;;;9.56;100.00
48624;BME280;34422;45.802;16.114;2023-04-23T00:10:59;99925.56;;;9.49;100.00
48624;BME280;34422;45.802;16.114;2023-04-23T00:13:26;99927.41;;;9.48;100.00
48624;BME280;34422;45.802;16.114;2023-04-23T00:15:53;99925.75;;;9.47;100.00
48624;BME280;34422;45.802;16.114;2023-04-23T00:18:21;99917.88;;;9.46;100.00
48624;BME280;34422;45.802;16.114;2023-04-23T00:20:47;99917.88;;;9.46;100.00
48624;BME280;34422;45.802;16.114;2023-04-23T00:23:14;99914.34;;;9.45;100.00
48624;BME280;34422;45.802;16.114;2023-04-23T00:25:41;99913.31;;;9.46;100.00
48624;BME280;34422;45.802;16.114;2023-04-23T00:28:07;99905.03;;;9.41;100.00
48624;BME280;34422;45.802;16.114;2023-04-23T00:30:34;99899.63;;;9.41;100.00
48624;BME280;34422;45.802;16.114;2023-04-23T00:33:01;99910.59;;;9.46;100.00
48624;BME280;34422;45.802;16.114;2023-04-23T00:35:28;99903.78;;;9.37;100.00
48624;BME280;34422;45.802;16.114;2023-04-23T00:37:54;99899.22;;;9.31;100.00
48624;BME280;34422;45.802;16.114;2023-04-23T00:40:21;99901.13;;;9.24;100.00
48624;BME280;34422;45.802;16.114;2023-04-23T00:42:49;99902.38;;;9.21;100.00
48624;BME280;34422;45.802;16.114;2023-04-23T00:45:17;99903.44;;;9.20;100.00
48624;BME280;34422;45.802;16.114;2023-04-23T00:47:45;99897.22;;;9.13;100.00
48624;BME280;34422;45.802;16.114;2023-04-23T00:50:12;99899.72;;;9.08;100.00
48624;BME280;34422;45.802;16.114;2023-04-23T00:52:39;99896.00;;;9.03;100.00
48624;BME280;34422;45.802;16.114;2023-04-23T00:55:06;99898.09;;;9.01;100.00
48624;BME280;34422;45.802;16.114;2023-04-23T00:57:37;99903.09;;;8.97;100.00
48624;BME280;34422;45.802;16.114;2023-04-23T01:00:05;99901.00;;;8.93;100.00
48624;BME280;34422;45.802;16.114;2023-04-23T01:02:33;99897.69;;;8.90;100.00
48624;BME280;34422;45.802;16.114;2023-04-23T01:05:03;99901.88;;;8.86;100.00
48624;BME280;34422;45.802;16.114;2023-04-23T01:07:32;99894.81;;;8.85;100.00
48624;BME280;34422;45.802;16.114;2023-04-23T01:09:59;99897.50;;;8.85;100.00
48624;BME280;34422;45.802;16.114;2023-04-23T01:12:26;99899.75;;;8.88;100.00
48624;BME280;34422;45.802;16.114;2023-04-23T01:14:53;99890.22;;;8.93;100.00
48624;BME280;34422;45.802;16.114;2023-04-23T01:17:21;99890.59;;;9.03;100.00
48624;BME280;34422;45.802;16.114;2023-04-23T01:19:48;99891.47;;;8.97;100.00
48624;BME280;34422;45.802;16.114;2023-04-23T01:22:15;99890.22;;;8.93;100.00
48624;BME280;34422;45.802;16.114;2023-04-23T01:24:42;99896.03;;;8.89;100.00
48624;BME280;34422;45.802;16.114;2023-04-23T01:27:09;99890.88;;;8.81;100.00
48624;BME280;34422;45.802;16.114;2023-04-23T01:29:40;99893.97;;;8.78;100.00
48624;BME280;34422;45.802;16.114;2023-04-23T01:32:07;99887.38;;;8.74;100.00
48624;BME280;34422;45.802;16.114;2023-04-23T01:34:34;99881.53;;;8.64;100.00
48624;BME280;34422;45.802;16.114;2023-04-23T01:37:02;99880.91;;;8.62;100.00
48624;BME280;34422;45.802;16.114;2023-04-23T01:39:30;99884.06;;;8.59;100.00
48624;BME280;34422;45.802;16.114;2023-04-23T01:41:57;99892.75;;;8.54;100.00
48624;BME280;34422;45.802;16.114;2023-04-23T01:44:24;99884.88;;;8.53;100.00
48624;BME280;34422;45.802;16.114;2023-04-23T01:46:51;99891.31;;;8.52;100.00
48624;BME280;34422;45.802;16.114;2023-04-23T01:49:18;99887.34;;;8.48;100.00
48624;BME280;34422;45.802;16.114;2023-04-23T01:51:45;99880.34;;;8.47;100.00
48624;BME280;34422;45.802;16.114;2023-04-23T01:54:11;99882.59;;;8.50;100.00
48624;BME280;34422;45.802;16.114;2023-04-23T01:56:38;99877.41;;;8.48;100.00
48624;BME280;34422;45.802;16.114;2023-04-23T01:59:05;99881.13;;;8.47;100.00
48624;BME280;34422;45.802;16.114;2023-04-23T02:01:43;99882.41;;;8.45;100.00
48624;BME280;34422;45.802;16.114;2023-04-23T02:04:12;99883.66;;;8.42;100.00
48624;BME280;34422;45.802;16.114;2023-04-23T02:06:40;99891.94;;;8.41;100.00
48624;BME280;34422;45.802;16.114;2023-04-23T02:09:07;99883.66;;;8.42;100.00
48624;BME280;34422;45.802;16.114;2023-04-23T02:11:34;99879.09;;;8.43;100.00
48624;BME280;34422;45.802;16.114;2023-04-23T02:14:02;99878.69;;;8.33;100.00
48624;BME280;34422;45.802;16.114;2023-04-23T02:16:29;99880.09;;;8.29;100.00
48624;BME280;34422;45.802;16.114;2023-04-23T02:18:56;99871.16;;;8.21;100.00
48624;BME280;34422;45.802;16.114;2023-04-23T02:21:24;99873.25;;;8.19;100.00
48624;BME280;34422;45.802;16.114;2023-04-23T02:23:52;99876.97;;;8.18;100.00
48624;BME280;34422;45.802;16.114;2023-04-23T02:26:19;99877.38;;;8.15;100.00
48624;BME280;34422;45.802;16.114;2023-04-23T02:28:45;99876.13;;;8.11;100.00
48624;BME280;34422;45.802;16.114;2023-04-23T02:31:12;99876.13;;;8.11;100.00
48624;BME280;34422;45.802;16.114;2023-04-23T02:33:40;99878.19;;;8.09;100.00
48624;BME280;34422;45.802;16.114;2023-04-23T02:36:08;99879.22;;;8.08;100.00
48624;BME280;34422;45.802;16.114;2023-04-23T02:38:37;99889.19;;;8.08;100.00
48624;BME280;34422;45.802;16.114;2023-04-23T02:41:07;99875.31;;;8.04;100.00
48624;BME280;34422;45.802;16.114;2023-04-23T02:43:34;99878.63;;;8.00;100.00
48624;BME280;34422;45.802;16.114;2023-04-23T02:46:01;99881.09;;;8.01;100.00
48624;BME280;34422;45.802;16.114;2023-04-23T02:48:38;99876.53;;;7.95;100.00
48624;BME280;34422;45.802;16.114;2023-04-23T02:51:08;99885.25;;;7.97;100.00
48624;BME280;34422;45.802;16.114;2023-04-23T02:53:35;99887.72;;;7.99;100.00
48624;BME280;34422;45.802;16.114;2023-04-23T02:56:03;99881.31;;;8.00;100.00
48624;BME280;34422;45.802;16.114;2023-04-23T02:58:29;99888.34;;;8.01;100.00
48624;BME280;34422;45.802;16.114;2023-04-23T03:00:56;99884.63;;;8.02;100.00
48624;BME280;34422;45.802;16.114;2023-04-23T03:03:26;99882.78;;;8.02;100.00
48624;BME280;34422;45.802;16.114;2023-04-23T03:05:58;99881.50;;;7.98;100.00
48624;BME280;34422;45.802;16.114;2023-04-23T03:08:25;99880.69;;;7.91;100.00
48624;BME280;34422;45.802;16.114;2023-04-23T03:10:52;99885.84;;;7.86;100.00
48624;BME280;34422;45.802;16.114;2023-04-23T03:13:19;99887.28;;;7.82;100.00
48624;BME280;34422;45.802;16.114;2023-04-23T03:15:46;99877.97;;;7.78;100.00
48624;BME280;34422;45.802;16.114;2023-04-23T03:18:13;99881.69;;;7.77;100.00
48624;BME280;34422;45.802;16.114;2023-04-23T03:20:40;99890.81;;;7.76;100.00
48624;BME280;34422;45.802;16.114;2023-04-23T03:23:07;99891.84;;;7.75;100.00
48624;BME280;34422;45.802;16.114;2023-04-23T03:25:34;99887.72;;;7.79;100.00
48624;BME280;34422;45.802;16.114;2023-04-23T03:28:01;99878.81;;;7.78;100.00
48624;BME280;34422;45.802;16.114;2023-04-23T03:30:29;99880.03;;;7.76;100.00
48624;BME280;34422;45.802;16.114;2023-04-23T03:32:56;99879.19;;;7.75;100.00
48624;BME280;34422;45.802;16.114;2023-04-23T03:35:24;99883.13;;;7.73;100.00
48624;BME280;34422;45.802;16.114;2023-04-23T03:37:51;99889.31;;;7.67;100.00
48624;BME280;34422;45.802;16.114;2023-04-23T03:40:18;99887.63;;;7.59;100.00
48624;BME280;34422;45.802;16.114;2023-04-23T03:42:46;99883.28;;;7.58;100.00
48624;BME280;34422;45.802;16.114;2023-04-23T03:45:14;99888.25;;;7.55;100.00
48624;BME280;34422;45.802;16.114;2023-04-23T03:47:41;99885.16;;;7.58;100.00
48624;BME280;34422;45.802;16.114;2023-04-23T03:50:09;99885.34;;;7.56;100.00
48624;BME280;34422;45.802;16.114;2023-04-23T03:52:36;99882.88;;;7.61;100.00
48624;BME280;34422;45.802;16.114;2023-04-23T03:55:03;99880.78;;;7.57;100.00
48624;BME280;34422;45.802;16.114;2023-04-23T03:57:29;99887.22;;;7.56;100.00
48624;BME280;34422;45.802;16.114;2023-04-23T03:59:57;99886.19;;;7.57;100.00
48624;BME280;34422;45.802;16.114;2023-04-23T04:02:23;99892.59;;;7.56;100.00
48624;BME280;34422;45.802;16.114;2023-04-23T04:04:50;99889.28;;;7.54;100.00
48624;BME280;34422;45.802;16.114;2023-04-23T04:07:17;99883.88;;;7.54;100.00
48624;BME280;34422;45.802;16.114;2023-04-23T04:09:43;99892.38;;;7.51;100.00
48624;BME280;34422;45.802;16.114;2023-04-23T04:12:12;99894.41;;;7.42;100.00
48624;BME280;34422;45.802;16.114;2023-04-23T04:14:39;99888.50;;;6.77;100.00
48624;BME280;34422;45.802;16.114;2023-04-23T04:17:05;99892.50;;;6.60;100.00
48624;BME280;34422;45.802;16.114;2023-04-23T04:19:33;99882.41;;;6.62;100.00
48624;BME280;34422;45.802;16.114;2023-04-23T04:21:59;99889.28;;;6.71;100.00
48624;BME280;34422;45.802;16.114;2023-04-23T04:24:28;99891.00;;;6.79;100.00
48624;BME280;34422;45.802;16.114;2023-04-23T04:26:58;99891.84;;;6.86;100.00
48624;BME280;34422;45.802;16.114;2023-04-23T04:29:28;99897.28;;;6.93;100.00
48624;BME280;34422;45.802;16.114;2023-04-23T04:31:54;99913.63;;;6.98;100.00
48624;BME280;34422;45.802;16.114;2023-04-23T04:34:21;99911.84;;;7.05;100.00
48624;BME280;34422;45.802;16.114;2023-04-23T04:36:48;99897.81;;;7.16;100.00
48624;BME280;34422;45.802;16.114;2023-04-23T04:39:19;99910.50;;;7.22;100.00
48624;BME280;34422;45.802;16.114;2023-04-23T04:41:46;99898.28;;;7.26;100.00
48624;BME280;34422;45.802;16.114;2023-04-23T04:44:13;99904.53;;;7.40;100.00
48624;BME280;34422;45.802;16.114;2023-04-23T04:46:41;99905.84;;;7.51;100.00
48624;BME280;34422;45.802;16.114;2023-04-23T04:49:09;99904.63;;;7.60;100.00
48624;BME280;34422;45.802;16.114;2023-04-23T04:51:37;99908.19;;;7.73;100.00
48624;BME280;34422;45.802;16.114;2023-04-23T04:54:04;99911.75;;;7.87;100.00
48624;BME280;34422;45.802;16.114;2023-04-23T04:56:33;99905.13;;;7.96;100.00
48624;BME280;34422;45.802;16.114;2023-04-23T04:59:00;99889.38;;;8.06;100.00
48624;BME280;34422;45.802;16.114;2023-04-23T05:01:27;99905.59;;;8.26;100.00
48624;BME280;34422;45.802;16.114;2023-04-23T05:03:55;99904.59;;;8.47;100.00
48624;BME280;34422;45.802;16.114;2023-04-23T05:06:22;99910.81;;;8.54;100.00
48624;BME280;34422;45.802;16.114;2023-04-23T05:08:49;99911.41;;;8.63;100.00
48624;BME280;34422;45.802;16.114;2023-04-23T05:11:17;99907.28;;;8.73;100.00
48624;BME280;34422;45.802;16.114;2023-04-23T05:13:47;99913.25;;;8.88;100.00
48624;BME280;34422;45.802;16.114;2023-04-23T05:16:14;99906.78;;;9.03;100.00
48624;BME280;34422;45.802;16.114;2023-04-23T05:18:41;99905.72;;;9.17;100.00
48624;BME280;34422;45.802;16.114;2023-04-23T05:21:08;99905.03;;;9.35;100.00
48624;BME280;34422;45.802;16.114;2023-04-23T05:23:35;99908.47;;;9.61;100.00
48624;BME280;34422;45.802;16.114;2023-04-23T05:26:02;99915.16;;;9.90;100.00
48624;BME280;34422;45.802;16.114;2023-04-23T05:28:29;99915.44;;;10.20;100.00
48624;BME280;34422;45.802;16.114;2023-04-23T05:30:57;99917.22;;;10.58;100.00
48624;BME280;34422;45.802;16.114;2023-04-23T05:33:25;99922.69;;;10.94;100.00
48624;BME280;34422;45.802;16.114;2023-04-23T05:35:53;99929.81;;;11.32;100.00
48624;BME280;34422;45.802;16.114;2023-04-23T05:38:20;99928.59;;;11.83;100.00
48624;BME280;34422;45.802;16.114;2023-04-23T05:40:47;99931.06;;;12.02;100.00
48624;BME280;34422;45.802;16.114;2023-04-23T05:43:13;99923.47;;;12.34;100.00
48624;BME280;34422;45.802;16.114;2023-04-23T05:45:40;99929.22;;;13.14;100.00
48624;BME280;34422;45.802;16.114;2023-04-23T05:48:07;99926.03;;;13.18;100.00
48624;BME280;34422;45.802;16.114;2023-04-23T05:50:34;99925.75;;;13.82;100.00
48624;BME280;34422;45.802;16.114;2023-04-23T05:53:01;99927.53;;;14.17;100.00
48624;BME280;34422;45.802;16.114;2023-04-23T05:55:27;99919.13;;;14.35;100.00
48624;BME280;34422;45.802;16.114;2023-04-23T05:57:54;99922.44;;;14.20;100.00
48624;BME280;34422;45.802;16.114;2023-04-23T06:00:21;99924.28;;;14.65;95.47
48624;BME280;34422;45.802;16.114;2023-04-23T06:02:48;99925.78;;;14.56;93.63
48624;BME280;34422;45.802;16.114;2023-04-23T06:05:15;99923.69;;;15.13;90.88
48624;BME280;34422;45.802;16.114;2023-04-23T06:07:41;99928.94;;;15.20;88.72
48624;BME280;34422;45.802;16.114;2023-04-23T06:10:08;99932.22;;;14.83;91.98
48624;BME280;34422;45.802;16.114;2023-04-23T06:12:36;99938.56;;;15.44;88.11
48624;BME280;34422;45.802;16.114;2023-04-23T06:15:05;99939.66;;;13.98;99.03
48624;BME280;34422;45.802;16.114;2023-04-23T06:17:32;99939.91;;;14.24;100.00
48624;BME280;34422;45.802;16.114;2023-04-23T06:19:59;99943.56;;;15.31;89.36
48624;BME280;34422;45.802;16.114;2023-04-23T06:22:26;99941.88;;;14.57;95.29
48624;BME280;34422;45.802;16.114;2023-04-23T06:24:53;99958.88;;;14.36;97.97
48624;BME280;34422;45.802;16.114;2023-04-23T06:27:19;99937.91;;;14.65;100.00
48624;BME280;34422;45.802;16.114;2023-04-23T06:29:46;99959.47;;;15.39;91.26
48624;BME280;34422;45.802;16.114;2023-04-23T06:32:13;99959.84;;;15.64;94.73
48624;BME280;34422;45.802;16.114;2023-04-23T06:34:39;99964.34;;;15.37;95.56
48624;BME280;34422;45.802;16.114;2023-04-23T06:37:06;99953.44;;;14.98;96.79
48624;BME280;34422;45.802;16.114;2023-04-23T06:39:34;99949.13;;;14.52;100.00
48624;BME280;34422;45.802;16.114;2023-04-23T06:42:05;99964.22;;;15.10;97.33
48624;BME280;34422;45.802;16.114;2023-04-23T06:44:31;99964.56;;;15.13;97.56
48624;BME280;34422;45.802;16.114;2023-04-23T06:46:58;99974.00;;;15.83;89.60
48624;BME280;34422;45.802;16.114;2023-04-23T06:49:25;99963.66;;;16.07;87.84
48624;BME280;34422;45.802;16.114;2023-04-23T06:51:52;99962.16;;;16.21;84.74
48624;BME280;34422;45.802;16.114;2023-04-23T06:54:18;99967.72;;;16.31;80.49
48624;BME280;34422;45.802;16.114;2023-04-23T06:56:45;99952.22;;;17.37;72.78
48624;BME280;34422;45.802;16.114;2023-04-23T06:59:12;99957.47;;;18.06;67.08
48624;BME280;34422;45.802;16.114;2023-04-23T07:01:39;99953.41;;;17.57;69.33
48624;BME280;34422;45.802;16.114;2023-04-23T07:04:06;99944.38;;;17.09;73.31
48624;BME280;34422;45.802;16.114;2023-04-23T07:06:33;99947.38;;;17.55;65.58
48624;BME280;34422;45.802;16.114;2023-04-23T07:09:01;99949.69;;;17.78;61.41
48624;BME280;34422;45.802;16.114;2023-04-23T07:11:27;99943.69;;;17.76;61.14
48624;BME280;34422;45.802;16.114;2023-04-23T07:13:57;99935.66;;;19.03;56.78
48624;BME280;34422;45.802;16.114;2023-04-23T07:16:23;99937.88;;;19.11;55.30
48624;BME280;34422;45.802;16.114;2023-04-23T07:18:51;99932.16;;;17.69;62.67
48624;BME280;34422;45.802;16.114;2023-04-23T07:21:18;99931.28;;;19.07;56.11
48624;BME280;34422;45.802;16.114;2023-04-23T07:23:44;99924.03;;;19.57;53.47
48624;BME280;34422;45.802;16.114;2023-04-23T07:26:11;99931.88;;;19.88;53.98
48624;BME280;34422;45.802;16.114;2023-04-23T07:28:38;99938.59;;;20.16;50.85
48624;BME280;34422;45.802;16.114;2023-04-23T07:31:05;99929.25;;;20.22;49.93
48624;BME280;34422;45.802;16.114;2023-04-23T07:33:33;99927.69;;;20.84;47.41
48624;BME280;34422;45.802;16.114;2023-04-23T07:35:59;99927.00;;;21.32;48.86
48624;BME280;34422;45.802;16.114;2023-04-23T07:38:26;99936.59;;;22.24;45.91
48624;BME280;34422;45.802;16.114;2023-04-23T07:40:53;99939.59;;;20.31;51.33
48624;BME280;34422;45.802;16.114;2023-04-23T07:43:20;99933.38;;;19.45;57.48
48624;BME280;34422;45.802;16.114;2023-04-23T07:45:46;99938.91;;;21.93;49.09
48624;BME280;34422;45.802;16.114;2023-04-23T07:48:13;99935.25;;;22.41;44.70
48624;BME280;34422;45.802;16.114;2023-04-23T07:50:41;99943.09;;;21.14;50.19
48624;BME280;34422;45.802;16.114;2023-04-23T07:53:07;99940.00;;;21.21;49.76
48624;BME280;34422;45.802;16.114;2023-04-23T07:55:34;99938.59;;;20.94;53.23
48624;BME280;34422;45.802;16.114;2023-04-23T07:58:01;99938.28;;;20.67;54.37
48624;BME280;34422;45.802;16.114;2023-04-23T08:00:28;99940.59;;;21.71;51.86
48624;BME280;34422;45.802;16.114;2023-04-23T08:02:55;99939.75;;;21.70;49.68
48624;BME280;34422;45.802;16.114;2023-04-23T08:05:21;99935.28;;;20.98;52.23
48624;BME280;34422;45.802;16.114;2023-04-23T08:07:48;99935.00;;;22.56;46.96
48624;BME280;34422;45.802;16.114;2023-04-23T08:12:42;99935.88;;;21.47;50.38
48624;BME280;34422;45.802;16.114;2023-04-23T08:15:09;99934.84;;;21.43;50.20
48624;BME280;34422;45.802;16.114;2023-04-23T08:17:36;99926.75;;;21.52;52.70
48624;BME280;34422;45.802;16.114;2023-04-23T08:20:04;99924.25;;;20.98;52.51
48624;BME280;34422;45.802;16.114;2023-04-23T08:22:33;99922.09;;;20.94;52.33
48624;BME280;34422;45.802;16.114;2023-04-23T08:25:00;99925.28;;;21.59;50.93
48624;BME280;34422;45.802;16.114;2023-04-23T08:27:26;99924.84;;;21.95;48.23
48624;BME280;34422;45.802;16.114;2023-04-23T08:29:53;99922.34;;;22.55;47.97
48624;BME280;34422;45.802;16.114;2023-04-23T08:32:20;99925.94;;;22.37;47.30
48624;BME280;34422;45.802;16.114;2023-04-23T08:34:47;99931.00;;;22.48;47.58
48624;BME280;34422;45.802;16.114;2023-04-23T08:37:14;99924.63;;;22.85;45.08
48624;BME280;34422;45.802;16.114;2023-04-23T08:39:40;99921.19;;;22.56;43.27
48624;BME280;34422;45.802;16.114;2023-04-23T08:42:19;99921.44;;;22.78;43.71
48624;BME280;34422;45.802;16.114;2023-04-23T08:44:50;99916.22;;;22.77;42.71
48624;BME280;34422;45.802;16.114;2023-04-23T08:47:17;99909.50;;;22.96;44.49
48624;BME280;34422;45.802;16.114;2023-04-23T08:49:45;99912.31;;;24.06;41.53
48624;BME280;34422;45.802;16.114;2023-04-23T08:52:15;99912.28;;;22.96;43.76
48624;BME280;34422;45.802;16.114;2023-04-23T08:54:46;99912.19;;;23.61;44.40
48624;BME280;34422;45.802;16.114;2023-04-23T08:57:15;99921.69;;;23.55;43.56
48624;BME280;34422;45.802;16.114;2023-04-23T08:59:43;99914.34;;;23.04;44.26
48624;BME280;34422;45.802;16.114;2023-04-23T09:02:10;99911.78;;;22.24;45.69
48624;BME280;34422;45.802;16.114;2023-04-23T09:04:37;99913.06;;;22.83;43.56
48624;BME280;34422;45.802;16.114;2023-04-23T09:07:04;99899.00;;;22.98;43.92
48624;BME280;34422;45.802;16.114;2023-04-23T09:09:33;99910.69;;;24.05;40.66
48624;BME280;34422;45.802;16.114;2023-04-23T09:12:00;99902.13;;;23.79;41.15
48624;BME280;34422;45.802;16.114;2023-04-23T09:14:27;99897.88;;;24.09;40.90
48624;BME280;34422;45.802;16.114;2023-04-23T09:16:54;99888.41;;;23.06;43.00
48624;BME280;34422;45.802;16.114;2023-04-23T09:19:21;99894.16;;;23.23;42.13
48624;BME280;34422;45.802;16.114;2023-04-23T09:21:48;99891.56;;;23.13;43.42
48624;BME280;34422;45.802;16.114;2023-04-23T09:24:15;99891.41;;;23.78;40.54
48624;BME280;34422;45.802;16.114;2023-04-23T09:26:48;99881.75;;;22.23;44.52
48624;BME280;34422;45.802;16.114;2023-04-23T09:29:16;99882.06;;;23.19;43.01
48624;BME280;34422;45.802;16.114;2023-04-23T09:31:45;99879.28;;;22.91;43.09
48624;BME280;34422;45.802;16.114;2023-04-23T09:34:21;99884.41;;;23.25;45.48
48624;BME280;34422;45.802;16.114;2023-04-23T09:36:49;99887.81;;;23.22;43.02
48624;BME280;34422;45.802;16.114;2023-04-23T09:39:18;99875.09;;;22.94;45.20
48624;BME280;34422;45.802;16.114;2023-04-23T09:41:47;99882.88;;;22.41;44.62
48624;BME280;34422;45.802;16.114;2023-04-23T09:44:18;99880.94;;;22.74;45.84
48624;BME280;34422;45.802;16.114;2023-04-23T09:46:45;99873.47;;;22.74;43.43
48624;BME280;34422;45.802;16.114;2023-04-23T09:49:12;99866.59;;;22.90;43.13
48624;BME280;34422;45.802;16.114;2023-04-23T09:51:46;99862.47;;;22.55;44.07
48624;BME280;34422;45.802;16.114;2023-04-23T09:54:16;99867.66;;;23.22;44.74
48624;BME280;34422;45.802;16.114;2023-04-23T09:56:44;99857.75;;;23.48;42.02
48624;BME280;34422;45.802;16.114;2023-04-23T09:59:21;99856.59;;;22.62;41.44
48624;BME280;34422;45.802;16.114;2023-04-23T10:01:48;99862.34;;;22.47;41.96
48624;BME280;34422;45.802;16.114;2023-04-23T10:04:22;99863.50;;;22.78;40.18
48624;BME280;34422;45.802;16.114;2023-04-23T10:06:57;99864.34;;;22.92;40.39
48624;BME280;34422;45.802;16.114;2023-04-23T10:09:25;99863.88;;;23.18;41.82
48624;BME280;34422;45.802;16.114;2023-04-23T10:11:55;99865.19;;;23.07;42.26
48624;BME280;34422;45.802;16.114;2023-04-23T10:14:24;99864.47;;;23.15;40.03
48624;BME280;34422;45.802;16.114;2023-04-23T10:17:02;99853.31;;;22.60;42.07
48624;BME280;34422;45.802;16.114;2023-04-23T10:19:30;99846.59;;;23.26;41.37
48624;BME280;34422;45.802;16.114;2023-04-23T10:21:59;99849.56;;;23.57;39.55
48624;BME280;34422;45.802;16.114;2023-04-23T10:24:36;99848.09;;;23.87;37.19
48624;BME280;34422;45.802;16.114;2023-04-23T10:27:05;99841.38;;;23.38;41.50
48624;BME280;34422;45.802;16.114;2023-04-23T10:29:36;99844.84;;;23.44;40.60
48624;BME280;34422;45.802;16.114;2023-04-23T10:32:04;99836.56;;;23.30;41.85
48624;BME280;34422;45.802;16.114;2023-04-23T10:34:32;99836.19;;;23.23;42.50
48624;BME280;34422;45.802;16.114;2023-04-23T10:37:00;99826.66;;;23.29;42.02
48624;BME280;34422;45.802;16.114;2023-04-23T10:39:32;99823.19;;;23.10;42.35
48624;BME280;34422;45.802;16.114;2023-04-23T10:42:00;99827.81;;;22.68;42.16
48624;BME280;34422;45.802;16.114;2023-04-23T10:44:32;99816.25;;;22.33;42.41
48624;BME280;34422;45.802;16.114;2023-04-23T10:46:59;99820.09;;;22.97;42.95
48624;BME280;34422;45.802;16.114;2023-04-23T10:49:32;99822.38;;;23.23;41.27
48624;BME280;34422;45.802;16.114;2023-04-23T10:52:14;99816.66;;;23.33;40.64
48624;BME280;34422;45.802;16.114;2023-04-23T10:54:42;99815.13;;;23.90;40.88
48624;BME280;34422;45.802;16.114;2023-04-23T10:57:10;99812.94;;;23.10;40.35
48624;BME280;34422;45.802;16.114;2023-04-23T10:59:51;99816.03;;;23.09;42.17
48624;BME280;34422;45.802;16.114;2023-04-23T11:02:18;99809.69;;;23.22;40.43
48624;BME280;34422;45.802;16.114;2023-04-23T11:04:52;99814.31;;;23.90;38.25
48624;BME280;34422;45.802;16.114;2023-04-23T11:07:20;99806.13;;;23.85;40.04
48624;BME280;34422;45.802;16.114;2023-04-23T11:09:50;99807.97;;;23.89;38.37
48624;BME280;34422;45.802;16.114;2023-04-23T11:14:47;99807.06;;;24.16;39.56
48624;BME280;34422;45.802;16.114;2023-04-23T11:17:22;99805.38;;;23.93;38.91
48624;BME280;34422;45.802;16.114;2023-04-23T11:20:19;99792.84;;;23.87;38.04
48624;BME280;34422;45.802;16.114;2023-04-23T11:22:50;99803.06;;;24.44;37.93
48624;BME280;34422;45.802;16.114;2023-04-23T11:25:22;99803.09;;;24.53;38.47
48624;BME280;34422;45.802;16.114;2023-04-23T11:27:51;99802.88;;;24.41;37.85
48624;BME280;34422;45.802;16.114;2023-04-23T11:30:26;99790.88;;;24.23;37.02
48624;BME280;34422;45.802;16.114;2023-04-23T11:32:54;99787.47;;;25.10;36.39
48624;BME280;34422;45.802;16.114;2023-04-23T11:35:23;99786.13;;;24.99;35.36
48624;BME280;34422;45.802;16.114;2023-04-23T11:37:54;99780.00;;;24.89;36.49
48624;BME280;34422;45.802;16.114;2023-04-23T11:40:21;99791.25;;;24.30;38.84
48624;BME280;34422;45.802;16.114;2023-04-23T11:42:49;99778.56;;;24.91;37.49
48624;BME280;34422;45.802;16.114;2023-04-23T11:45:17;99775.25;;;25.11;37.64
48624;BME280;34422;45.802;16.114;2023-04-23T11:47:46;99775.31;;;24.58;37.20
48624;BME280;34422;45.802;16.114;2023-04-23T11:50:17;99770.50;;;24.72;39.45
48624;BME280;34422;45.802;16.114;2023-04-23T11:52:44;99770.84;;;24.79;37.48
48624;BME280;34422;45.802;16.114;2023-04-23T11:55:11;99762.59;;;24.26;36.33
48624;BME280;34422;45.802;16.114;2023-04-23T11:57:44;99766.72;;;24.37;37.30
48624;BME280;34422;45.802;16.114;2023-04-23T12:00:19;99756.00;;;24.75;36.71
48624;BME280;34422;45.802;16.114;2023-04-23T12:02:51;99763.16;;;24.68;38.05
48624;BME280;34422;45.802;16.114;2023-04-23T12:05:40;99761.53;;;24.67;36.88
48624;BME280;34422;45.802;16.114;2023-04-23T12:08:16;99767.47;;;23.85;38.42
48624;BME280;34422;45.802;16.114;2023-04-23T12:10:51;99753.69;;;24.29;38.28
48624;BME280;34422;45.802;16.114;2023-04-23T12:13:28;99756.03;;;24.22;37.14
48624;BME280;34422;45.802;16.114;2023-04-23T12:16:01;99758.81;;;24.44;37.84
48624;BME280;34422;45.802;16.114;2023-04-23T12:18:39;99758.69;;;24.89;36.15
48624;BME280;34422;45.802;16.114;2023-04-23T12:21:09;99753.22;;;24.67;37.73
48624;BME280;34422;45.802;16.114;2023-04-23T12:23:39;99743.25;;;24.26;38.07
48624;BME280;34422;45.802;16.114;2023-04-23T12:26:11;99752.72;;;24.65;37.77
48624;BME280;34422;45.802;16.114;2023-04-23T12:28:53;99736.59;;;24.58;36.86
48624;BME280;34422;45.802;16.114;2023-04-23T12:31:25;99736.03;;;24.48;36.53
48624;BME280;34422;45.802;16.114;2023-04-23T12:36:26;99735.63;;;23.51;37.91
48624;BME280;34422;45.802;16.114;2023-04-23T12:41:58;99734.09;;;23.81;38.28
48624;BME280;34422;45.802;16.114;2023-04-23T12:44:27;99734.63;;;24.28;37.33
48624;BME280;34422;45.802;16.114;2023-04-23T12:46:59;99728.59;;;24.57;36.02
48624;BME280;34422;45.802;16.114;2023-04-23T12:49:28;99724.84;;;24.92;36.88
48624;BME280;34422;45.802;16.114;2023-04-23T12:51:56;99732.41;;;24.38;34.98
48624;BME280;34422;45.802;16.114;2023-04-23T12:54:27;99724.38;;;24.28;35.93
48624;BME280;34422;45.802;16.114;2023-04-23T12:56:55;99716.47;;;23.91;36.60
48624;BME280;34422;45.802;16.114;2023-04-23T12:59:22;99712.06;;;24.12;35.93
48624;BME280;34422;45.802;16.114;2023-04-23T13:01:50;99700.03;;;23.86;36.59
48624;BME280;34422;45.802;16.114;2023-04-23T13:04:17;99710.16;;;24.21;35.54
48624;BME280;34422;45.802;16.114;2023-04-23T13:06:44;99703.59;;;24.31;35.96